695  
SHUS65 KGJT 312027  
FWOGJT  
 
DAILY FIRE WEATHER OBSERVATION  
NATIONAL WEATHER SERVICE GRAND JUNCTION CO  
212 PM MDT WED OCT 31 2018  
 
STATE OF THE WEATHER (W) 0  
DRY BULB TEMPERATURE 52 DEGREES FAHRENHEIT  
RELATIVE HUMIDITY (RH) 22 PERCENT  
LIGHTNING ACTIVITY LEVEL  
(LAL - MIDNIGHT TO 2 PM) 1  
WIND DIRECTION 270 DEGREES (C IF CALM)  
WIND SPEED 9 MPH  
MAX TEMP (2 PM - 2 PM) 54 DEGREES FAHRENHEIT  
MIN TEMP (2 PM - 2 PM) 31 DEGREES FAHRENHEIT  
MAX RH (2 PM - 2 PM) 63 PERCENT  
MIN RH (2 PM - 2 PM) 22 PERCENT  
PCPN DURATION 0.0 HOURS  
PCPN AMT (2 PM - 2 PM) 0.00 INCHES  
LAL (2 PM - 2 PM) 1  
 

 
 
METAR KGJT 311953Z 27008KT 10SM CLR 11/M10 A3007 RMK AO2 SLP165  
T01111100 $  
 
CLICK HERE TO GO TO PREVIOUS BULLETINS.

The Nexlab CO Page
The Nexlab UT Page Main Text Page